Time,TemperatureF,DewpointF,PressureIn,WindDirection,WindDirectionDegrees,WindSpeedMPH,WindSpeedGustMPH,Humidity,HourlyPrecipIn,Conditions,Clouds,dailyrainin,SolarRadiationWatts/m^2,SoftwareType,DateUTC
2013-01-10 00:00:00,21.6,19.6,30.33,SSE,158,0.0,2.0,92,0.00,,---,0.00,0.00,VWS V14.00,2013-01-10 06:00:00,
2013-01-10 00:30:00,21.9,19.9,30.33,SSE,158,0.0,1.0,92,0.00,,---,0.00,0.00,VWS V14.00,2013-01-10 06:30:00,
2013-01-10 01:00:00,22.2,19.7,30.33,SSE,158,0.0,1.0,90,0.00,,---,0.00,0.00,VWS V14.00,2013-01-10 07:00:00,
2013-01-10 01:30:00,22.2,20.0,30.33,SSE,158,0.0,1.0,91,0.00,,---,0.00,0.00,VWS V14.00,2013-01-10 07:30:00,
2013-01-10 02:00:00,23.0,20.8,30.33,SSE,158,0.0,1.0,91,0.00,,---,0.00,0.00,VWS V14.00,2013-01-10 08:00:00,
2013-01-10 02:30:00,23.4,21.2,30.33,SSE,158,0.0,0.0,91,0.00,,---,0.00,0.00,VWS V14.00,2013-01-10 08:30:00,
2013-01-10 03:00:00,23.0,20.5,30.32,SSE,158,0.0,2.0,90,0.00,,---,0.00,0.00,VWS V14.00,2013-01-10 09:00:00,
2013-01-10 03:30:00,22.6,20.4,30.32,SSE,158,0.0,1.0,91,0.00,,---,0.00,0.00,VWS V14.00,2013-01-10 09:30:00,
2013-01-10 04:00:00,23.3,21.6,30.31,SSE,158,0.0,0.0,93,0.00,,---,0.00,0.00,VWS V14.00,2013-01-10 10:00:00,
2013-01-10 04:30:00,24.6,22.9,30.30,South,180,0.0,5.0,93,0.00,,---,0.00,0.00,VWS V14.00,2013-01-10 10:30:00,
2013-01-10 05:00:00,25.1,23.1,30.28,South,180,0.0,2.0,92,0.00,,---,0.00,0.00,VWS V14.00,2013-01-10 11:00:00,
2013-01-10 05:30:00,26.0,23.5,30.28,South,180,0.0,4.0,90,0.00,,---,0.00,0.00,VWS V14.00,2013-01-10 11:30:00,
2013-01-10 06:00:00,25.8,22.7,30.28,South,180,0.0,0.0,88,0.00,,---,0.00,0.00,VWS V14.00,2013-01-10 12:00:00,
2013-01-10 06:30:00,24.9,22.4,30.29,South,180,0.0,0.0,90,0.00,,---,0.00,0.00,VWS V14.00,2013-01-10 12:30:00,
2013-01-10 07:00:00,24.4,21.9,30.28,SSE,158,0.0,1.0,90,0.00,,---,0.00,0.00,VWS V14.00,2013-01-10 13:00:00,
2013-01-10 07:30:00,25.4,22.9,30.28,SSW,202,0.0,5.0,90,0.00,,---,0.00,0.00,VWS V14.00,2013-01-10 13:30:00,
2013-01-10 08:00:00,26.2,23.1,30.27,South,180,0.0,1.0,88,0.00,,---,0.00,0.00,VWS V14.00,2013-01-10 14:00:00,
2013-01-10 08:30:00,27.5,24.1,30.27,South,180,0.0,5.0,87,0.00,,---,0.00,9.00,VWS V14.00,2013-01-10 14:30:00,
2013-01-10 09:00:00,28.7,24.5,30.26,South,180,0.0,3.0,84,0.00,,---,0.00,17.00,VWS V14.00,2013-01-10 15:00:00,
2013-01-10 09:30:00,29.5,25.3,30.25,SSW,202,0.0,4.0,84,0.00,,---,0.00,24.00,VWS V14.00,2013-01-10 15:30:00,
2013-01-10 10:00:00,31.2,26.1,30.25,SE,135,0.0,2.0,81,0.00,,---,0.00,43.00,VWS V14.00,2013-01-10 16:00:00,
2013-01-10 10:30:00,33.3,26.2,30.24,South,180,0.0,3.0,75,0.00,,---,0.00,69.00,VWS V14.00,2013-01-10 16:30:00,
2013-01-10 11:00:00,35.8,25.9,30.22,South,180,1.0,6.0,67,0.00,,---,0.00,131.00,VWS V14.00,2013-01-10 17:00:00,
2013-01-10 11:30:00,37.6,26.2,30.21,South,180,1.0,4.0,63,0.00,,---,0.01,179.00,VWS V14.00,2013-01-10 17:30:00,
2013-01-10 12:00:00,38.6,26.3,30.17,SSE,158,1.0,6.0,61,0.00,,---,0.01,211.00,VWS V14.00,2013-01-10 18:00:00,
2013-01-10 12:30:00,38.9,25.8,30.14,SSW,202,1.0,10.0,59,0.00,,---,0.01,224.00,VWS V14.00,2013-01-10 18:30:00,
2013-01-10 13:00:00,39.5,26.4,30.11,SSW,202,1.0,6.0,59,0.00,,---,0.01,248.00,VWS V14.00,2013-01-10 19:00:00,
2013-01-10 13:30:00,40.5,25.2,30.07,SSE,158,0.0,5.0,54,11.29,,---,0.03,227.00,VWS V14.00,2013-01-10 19:30:00,
2013-01-10 14:00:00,40.6,25.3,30.06,South,180,0.0,6.0,54,0.00,,---,0.03,182.00,VWS V14.00,2013-01-10 20:00:00,
2013-01-10 14:30:00,40.1,27.8,30.07,South,180,0.0,5.0,61,0.00,,---,0.04,147.00,VWS V14.00,2013-01-10 20:30:00,
2013-01-10 15:00:00,39.0,26.7,30.05,NE,45,0.0,3.0,61,0.00,,---,0.04,80.00,VWS V14.00,2013-01-10 21:00:00,
2013-01-10 15:30:00,38.0,25.0,30.04,East,90,0.0,3.0,59,0.00,,---,0.05,52.00,VWS V14.00,2013-01-10 21:30:00,
2013-01-10 16:00:00,37.4,25.2,30.02,SE,135,0.0,2.0,61,0.00,,---,0.05,22.00,VWS V14.00,2013-01-10 22:00:00,
2013-01-10 16:30:00,36.7,26.1,30.01,SE,135,0.0,4.0,65,0.00,,---,0.05,11.00,VWS V14.00,2013-01-10 22:30:00,
2013-01-10 17:00:00,34.4,28.9,29.98,SE,135,0.0,9.0,80,0.14,,---,0.08,1.00,VWS V14.00,2013-01-10 23:00:00,
2013-01-10 17:30:00,33.0,29.0,29.96,NE,45,0.0,3.0,85,0.11,,---,0.11,0.00,VWS V14.00,2013-01-10 23:30:00,
2013-01-10 18:00:00,32.4,29.5,29.95,NNE,22,0.0,6.0,89,0.22,,---,0.17,0.00,VWS V14.00,2013-01-11 00:00:00,
2013-01-10 18:30:00,32.3,30.0,29.93,SE,135,0.0,5.0,91,0.17,,---,0.21,0.00,VWS V14.00,2013-01-11 00:30:00,
2013-01-10 19:00:00,32.1,30.3,29.91,ENE,68,0.0,3.0,93,0.14,,---,0.27,0.00,VWS V14.00,2013-01-11 01:00:00,
2013-01-10 19:30:00,32.1,30.6,29.88,South,180,0.0,4.0,94,0.14,,---,0.29,0.00,VWS V14.00,2013-01-11 01:30:00,
2013-01-10 20:00:00,32.1,30.6,29.86,NNE,22,0.0,4.0,94,0.05,,---,0.31,0.00,VWS V14.00,2013-01-11 02:00:00,
2013-01-10 20:30:00,32.1,30.6,29.85,South,180,0.0,4.0,94,0.20,,---,0.37,0.00,VWS V14.00,2013-01-11 02:30:00,
2013-01-10 21:00:00,32.2,30.9,29.82,ESE,112,0.0,4.0,95,0.11,,---,0.39,0.00,VWS V14.00,2013-01-11 03:00:00,
2013-01-10 21:30:00,32.4,31.1,29.80,SW,225,0.0,1.0,95,0.00,,---,0.39,0.00,VWS V14.00,2013-01-11 03:30:00,
2013-01-10 22:00:00,32.8,31.8,29.79,South,180,0.0,2.0,96,0.00,,---,0.39,0.00,VWS V14.00,2013-01-11 04:00:00,
2013-01-10 22:30:00,33.3,32.3,29.79,SSE,158,0.0,3.0,96,0.00,,---,0.39,0.00,VWS V14.00,2013-01-11 04:30:00,
2013-01-10 23:00:00,33.2,32.2,29.77,SSE,158,0.0,1.0,96,0.00,,---,0.39,0.00,VWS V14.00,2013-01-11 05:00:00,
2013-01-10 23:30:00,33.1,32.1,29.77,SSE,158,0.0,1.0,96,0.00,,---,0.40,0.00,VWS V14.00,2013-01-11 05:30:00,